createdAt,value
2022-09-21T00:01:08.096Z,99.90
2022-09-21T00:03:58.334Z,99.90
2022-09-21T00:06:48.031Z,99.90
2022-09-21T00:09:36.385Z,99.90
2022-09-21T00:12:24.770Z,99.90
2022-09-21T00:15:15.266Z,99.90
2022-09-21T00:18:03.930Z,99.90
2022-09-21T00:20:53.377Z,99.90
2022-09-21T00:23:43.514Z,99.90
2022-09-21T00:26:32.153Z,99.90
2022-09-21T00:29:20.539Z,99.90
2022-09-21T00:32:08.874Z,99.90
2022-09-21T00:34:57.526Z,99.90
2022-09-21T00:37:45.870Z,99.90
2022-09-21T00:40:35.584Z,99.90
2022-09-21T00:43:23.987Z,99.90
2022-09-21T00:46:16.725Z,99.90
2022-09-21T00:49:05.151Z,99.90
2022-09-21T00:51:54.268Z,99.90
2022-09-21T00:54:46.306Z,99.90
2022-09-21T00:57:37.160Z,99.90
2022-09-21T01:00:25.546Z,99.90
2022-09-21T01:03:14.503Z,99.90
2022-09-21T01:06:03.085Z,99.90
2022-09-21T01:08:54.425Z,99.90
2022-09-21T01:11:51.864Z,99.90
2022-09-21T01:15:00.002Z,99.90
2022-09-21T01:17:57.294Z,99.90
2022-09-21T01:21:18.357Z,99.90
2022-09-21T01:24:40.885Z,99.90
2022-09-21T01:27:58.310Z,99.90
2022-09-21T01:30:50.265Z,99.90
2022-09-21T01:33:42.956Z,99.90
2022-09-21T01:36:32.688Z,99.90
2022-09-21T01:39:23.498Z,99.90
2022-09-21T01:42:13.806Z,99.90
2022-09-21T01:45:04.501Z,99.90
2022-09-21T01:47:56.744Z,99.90
2022-09-21T01:50:48.868Z,99.90
2022-09-21T01:53:40.978Z,99.90
2022-09-21T01:56:34.563Z,99.90
2022-09-21T01:59:27.298Z,99.90
2022-09-21T02:02:20.253Z,99.90
2022-09-21T02:05:10.199Z,99.90
2022-09-21T02:07:59.855Z,99.90
2022-09-21T02:10:51.742Z,99.90
2022-09-21T02:13:44.605Z,99.90
2022-09-21T02:16:39.744Z,99.90
2022-09-21T02:19:36.029Z,99.90
2022-09-21T02:22:34.172Z,99.90
2022-09-21T02:25:29.688Z,99.90
2022-09-21T02:28:29.922Z,99.90
2022-09-21T02:31:27.163Z,99.90
2022-09-21T02:34:21.614Z,99.90
2022-09-21T02:37:19.536Z,99.90
2022-09-21T02:40:19.057Z,99.90
2022-09-21T02:43:12.149Z,99.90
2022-09-21T02:46:04.342Z,99.90
2022-09-21T02:48:56.114Z,99.90
2022-09-21T02:51:48.051Z,99.90
2022-09-21T02:54:38.211Z,99.90
2022-09-21T02:57:28.357Z,99.90
2022-09-21T03:00:17.302Z,99.90
2022-09-21T03:03:17.229Z,99.90
2022-09-21T03:06:05.717Z,99.90
2022-09-21T03:08:54.126Z,99.90
2022-09-21T03:11:43.284Z,99.90
2022-09-21T03:14:33.765Z,99.90
2022-09-21T03:17:22.058Z,99.90
2022-09-21T03:20:10.685Z,99.90
2022-09-21T03:22:58.984Z,99.90
2022-09-21T03:25:47.731Z,99.90
2022-09-21T03:28:36.095Z,99.90
2022-09-21T03:31:25.840Z,99.90
2022-09-21T03:34:14.182Z,99.90
2022-09-21T03:37:03.037Z,99.90
2022-09-21T03:39:51.403Z,99.90
2022-09-21T03:42:39.757Z,99.90
2022-09-21T03:45:28.259Z,99.90
2022-09-21T03:48:17.876Z,99.90
2022-09-21T03:51:06.456Z,99.90
2022-09-21T03:53:54.726Z,99.90
2022-09-21T03:56:43.000Z,99.90
2022-09-21T03:59:31.297Z,99.90
2022-09-21T04:02:19.653Z,99.90
2022-09-21T04:05:11.057Z,99.90
2022-09-21T04:08:02.022Z,99.90
2022-09-21T04:10:50.336Z,99.90
2022-09-21T04:13:38.810Z,99.90
2022-09-21T04:16:27.886Z,99.90
2022-09-21T04:19:16.639Z,99.90
2022-09-21T04:22:06.614Z,99.90
2022-09-21T04:24:54.970Z,99.90
2022-09-21T04:27:43.489Z,99.90
2022-09-21T04:30:37.511Z,99.90
2022-09-21T04:33:26.401Z,99.90
2022-09-21T04:36:14.710Z,99.90
2022-09-21T04:39:04.940Z,99.90
2022-09-21T04:41:53.425Z,99.90
2022-09-21T04:44:41.733Z,99.90
2022-09-21T04:47:31.268Z,99.90
2022-09-21T04:50:19.833Z,99.90
2022-09-21T04:53:08.141Z,99.90
2022-09-21T04:55:57.823Z,99.90
2022-09-21T04:58:46.465Z,99.90
2022-09-21T05:01:35.051Z,99.90
2022-09-21T05:04:23.343Z,99.90
2022-09-21T05:07:11.680Z,99.90
2022-09-21T05:10:06.139Z,99.90
2022-09-21T05:12:55.813Z,99.90
2022-09-21T05:15:44.247Z,99.90
2022-09-21T05:18:32.671Z,99.90
2022-09-21T05:21:21.565Z,99.90
2022-09-21T05:24:10.427Z,99.90
2022-09-21T05:26:58.739Z,99.90
2022-09-21T05:29:49.161Z,99.90
2022-09-21T05:32:46.761Z,99.90
2022-09-21T05:35:39.147Z,99.90
2022-09-21T05:38:27.903Z,99.90
2022-09-21T05:41:16.717Z,99.90
2022-09-21T05:44:05.783Z,99.90
2022-09-21T05:47:00.786Z,99.90
2022-09-21T05:50:00.666Z,99.90
2022-09-21T05:52:57.059Z,99.90
2022-09-21T05:55:55.574Z,99.90
2022-09-21T05:58:52.347Z,99.90
2022-09-21T06:01:53.452Z,99.90
2022-09-21T06:04:43.770Z,99.90
2022-09-21T06:07:32.104Z,99.90
2022-09-21T06:10:20.467Z,99.90
2022-09-21T06:13:08.795Z,99.90
2022-09-21T06:15:58.464Z,99.90
2022-09-21T06:18:46.843Z,99.90
2022-09-21T06:21:36.559Z,99.90
2022-09-21T06:24:25.321Z,99.90
2022-09-21T06:27:13.731Z,99.90
2022-09-21T06:30:02.059Z,99.90
2022-09-21T06:32:50.403Z,99.90
2022-09-21T06:35:40.332Z,99.90
2022-09-21T06:38:30.221Z,99.90
2022-09-21T06:41:21.312Z,99.90
2022-09-21T06:44:09.891Z,99.90
2022-09-21T06:46:58.580Z,99.90
2022-09-21T06:49:46.957Z,99.90
2022-09-21T06:52:35.352Z,99.90
2022-09-21T06:55:25.157Z,99.90
2022-09-21T06:58:13.481Z,99.90
2022-09-21T07:01:07.500Z,99.90
2022-09-21T07:03:55.889Z,99.90
2022-09-21T07:06:44.229Z,99.90
2022-09-21T07:12:42.429Z,99.90
2022-09-21T07:15:31.191Z,99.90
2022-09-21T07:18:19.533Z,99.90
2022-09-21T07:21:09.305Z,99.90
2022-09-21T07:24:00.422Z,99.90
2022-09-21T07:26:49.387Z,99.90
2022-09-21T07:29:39.665Z,99.90
2022-09-21T07:32:28.112Z,99.90
2022-09-21T07:35:16.528Z,99.90
2022-09-21T07:38:06.817Z,99.90
2022-09-21T07:40:55.216Z,99.90
2022-09-21T07:43:43.856Z,99.90
2022-09-21T07:46:33.717Z,99.90
2022-09-21T07:49:22.064Z,99.90
2022-09-21T07:52:11.183Z,99.90
2022-09-21T07:54:59.701Z,99.90
2022-09-21T07:58:08.601Z,99.90
2022-09-21T08:00:57.053Z,99.90
2022-09-21T08:03:49.583Z,99.90
2022-09-21T08:06:40.150Z,99.90
2022-09-21T08:09:28.738Z,99.90
2022-09-21T08:12:18.856Z,99.90
2022-09-21T08:15:16.487Z,99.90
2022-09-21T08:18:13.533Z,99.90
2022-09-21T08:21:03.263Z,99.90
2022-09-21T08:23:51.750Z,99.90
2022-09-21T08:26:40.726Z,99.90
2022-09-21T08:29:30.319Z,99.90
2022-09-21T08:32:39.309Z,99.90
2022-09-21T08:35:27.008Z,99.90
2022-09-21T08:38:16.644Z,99.90
2022-09-21T08:41:16.343Z,99.90
2022-09-21T08:44:11.104Z,99.90
2022-09-21T08:47:07.646Z,99.90
2022-09-21T08:50:00.229Z,99.90
2022-09-21T08:52:49.423Z,99.90
2022-09-21T08:55:39.292Z,99.90
2022-09-21T08:58:29.240Z,99.90
2022-09-21T09:01:39.952Z,99.90
2022-09-21T09:04:46.909Z,99.90
2022-09-21T09:07:58.814Z,99.80
2022-09-21T09:10:57.545Z,99.60
2022-09-21T09:14:03.047Z,99.00
2022-09-21T09:17:06.321Z,98.80
2022-09-21T09:20:01.218Z,97.80
2022-09-21T09:23:00.744Z,97.20
2022-09-21T09:25:52.907Z,96.50
2022-09-21T09:28:50.119Z,97.40
2022-09-21T09:31:43.340Z,96.40
2022-09-21T09:34:36.585Z,95.70
2022-09-21T09:37:34.932Z,94.90
2022-09-21T09:40:34.403Z,95.70
2022-09-21T09:43:43.243Z,94.80
2022-09-21T09:46:37.847Z,94.80
2022-09-21T09:49:38.486Z,94.60
2022-09-21T09:52:27.818Z,95.10
2022-09-21T09:55:20.279Z,93.90
2022-09-21T09:58:18.768Z,92.90
2022-09-21T10:01:08.653Z,92.90
2022-09-21T10:04:07.141Z,93.00
2022-09-21T10:06:55.641Z,93.80
2022-09-21T10:09:44.033Z,95.10
2022-09-21T10:12:32.512Z,94.60
2022-09-21T10:15:22.668Z,93.50
2022-09-21T10:18:22.285Z,93.60
2022-09-21T10:21:18.691Z,91.90
2022-09-21T10:24:13.827Z,92.30
2022-09-21T10:27:10.418Z,91.10
2022-09-21T10:29:58.795Z,90.60
2022-09-21T10:32:56.985Z,89.70
2022-09-21T10:35:52.543Z,89.40
2022-09-21T10:38:40.888Z,88.90
2022-09-21T10:41:29.590Z,88.40
2022-09-21T10:44:19.564Z,89.40
2022-09-21T10:47:22.944Z,89.40
2022-09-21T10:50:24.191Z,87.80
2022-09-21T10:53:20.901Z,87.40
2022-09-21T10:56:18.876Z,86.40
2022-09-21T10:59:23.734Z,82.70
2022-09-21T11:02:46.628Z,84.70
2022-09-21T11:05:39.165Z,82.00
2022-09-21T11:08:35.096Z,82.40
2022-09-21T11:11:39.578Z,81.00
2022-09-21T11:14:44.215Z,82.10
2022-09-21T11:17:38.849Z,77.60
2022-09-21T11:20:34.708Z,77.70
2022-09-21T11:23:34.736Z,75.60
2022-09-21T11:26:28.251Z,75.30
2022-09-21T11:29:20.989Z,73.00
2022-09-21T11:32:35.770Z,72.50
2022-09-21T11:35:42.134Z,70.90
2022-09-21T11:38:45.461Z,70.70
2022-09-21T11:41:50.145Z,70.90
2022-09-21T11:44:50.898Z,65.90
2022-09-21T11:47:50.691Z,63.60
2022-09-21T11:50:52.561Z,64.60
2022-09-21T11:54:10.675Z,62.50
2022-09-21T11:57:04.870Z,61.40
2022-09-21T12:00:11.531Z,58.40
2022-09-21T12:03:41.383Z,57.80
2022-09-21T12:06:50.737Z,56.20
2022-09-21T12:10:12.450Z,55.80
2022-09-21T12:13:07.520Z,55.50
2022-09-21T12:16:04.096Z,56.00
2022-09-21T12:19:01.445Z,56.50
2022-09-21T12:21:53.782Z,53.40
2022-09-21T12:24:47.528Z,51.80
2022-09-21T12:27:41.060Z,50.90
2022-09-21T12:30:31.866Z,50.40
2022-09-21T12:33:29.189Z,49.70
2022-09-21T12:36:21.932Z,49.10
2022-09-21T12:39:19.250Z,48.50
2022-09-21T12:42:18.507Z,48.30
2022-09-21T12:45:17.094Z,47.40
2022-09-21T12:48:14.459Z,46.80
2022-09-21T12:51:12.266Z,46.70
2022-09-21T12:54:12.876Z,46.20
2022-09-21T12:57:29.734Z,45.50
2022-09-21T13:00:22.397Z,44.90
2022-09-21T13:03:19.351Z,43.20
2022-09-21T13:06:30.831Z,42.50
2022-09-21T13:09:21.194Z,41.10
2022-09-21T13:12:15.236Z,40.70
2022-09-21T13:15:06.317Z,39.60
2022-09-21T13:18:02.302Z,39.30
2022-09-21T13:20:52.189Z,39.90
2022-09-21T13:23:42.243Z,40.00
2022-09-21T13:26:34.684Z,40.00
2022-09-21T13:29:29.746Z,39.90
2022-09-21T13:32:25.630Z,40.50
2022-09-21T13:36:03.784Z,39.40
2022-09-21T13:39:05.323Z,38.90
2022-09-21T13:42:03.135Z,40.10
2022-09-21T13:44:51.946Z,41.00
2022-09-21T13:47:42.950Z,42.90
2022-09-21T13:50:38.639Z,41.00
2022-09-21T13:53:34.182Z,41.50
2022-09-21T13:56:26.579Z,40.90
2022-09-21T13:59:24.512Z,38.80
2022-09-21T14:02:30.540Z,38.30
2022-09-21T14:05:27.645Z,37.80
2022-09-21T14:08:24.228Z,37.00
2022-09-21T14:11:19.383Z,36.60
2022-09-21T14:14:15.289Z,36.90
2022-09-21T14:17:04.744Z,36.40
2022-09-21T14:20:02.409Z,35.10
2022-09-21T14:23:28.369Z,34.40
2022-09-21T14:26:34.802Z,33.80
2022-09-21T14:29:28.205Z,34.10
2022-09-21T14:32:19.375Z,33.50
2022-09-21T14:35:13.960Z,33.80
2022-09-21T14:38:11.039Z,34.00
2022-09-21T14:41:04.003Z,34.70
2022-09-21T14:43:56.434Z,34.20
2022-09-21T14:47:12.206Z,33.40
2022-09-21T14:50:20.602Z,36.40
2022-09-21T14:53:35.634Z,40.00
2022-09-21T14:56:39.075Z,43.50
2022-09-21T14:59:47.743Z,47.60
2022-09-21T15:02:37.782Z,49.60
2022-09-21T15:05:32.495Z,51.40
2022-09-21T15:09:04.973Z,52.00
2022-09-21T15:12:01.161Z,47.00
2022-09-21T15:15:01.430Z,42.40
2022-09-21T15:17:58.605Z,38.60
2022-09-21T15:21:01.200Z,38.90
2022-09-21T15:23:53.014Z,37.00
2022-09-21T15:26:43.569Z,36.00
2022-09-21T15:29:33.702Z,35.80
2022-09-21T15:32:36.625Z,35.80
2022-09-21T15:35:27.711Z,36.40
2022-09-21T15:38:28.511Z,36.80
2022-09-21T15:41:40.499Z,38.80
2022-09-21T15:44:34.290Z,42.30
2022-09-21T15:47:26.135Z,45.00
2022-09-21T15:50:17.614Z,47.70
2022-09-21T15:53:12.187Z,49.10
2022-09-21T15:56:01.507Z,51.10
2022-09-21T15:58:50.848Z,53.00
2022-09-21T16:01:42.791Z,52.50
2022-09-21T16:04:33.821Z,53.70
2022-09-21T16:07:32.885Z,54.20
2022-09-21T16:10:41.026Z,55.00
2022-09-21T16:13:51.643Z,54.50
2022-09-21T16:17:21.875Z,54.60
2022-09-21T16:20:20.200Z,55.60
2022-09-21T16:23:15.023Z,55.00
2022-09-21T16:26:03.455Z,54.80
2022-09-21T16:28:59.182Z,55.50
2022-09-21T16:31:50.744Z,56.50
2022-09-21T16:34:39.687Z,57.10
2022-09-21T16:37:29.889Z,58.10
2022-09-21T16:40:19.861Z,58.10
2022-09-21T16:43:10.476Z,58.40
2022-09-21T16:45:59.552Z,59.80
2022-09-21T16:48:50.040Z,59.10
2022-09-21T16:51:38.533Z,59.50
2022-09-21T16:54:27.376Z,61.10
2022-09-21T16:57:17.556Z,63.20
2022-09-21T17:00:10.875Z,64.00
2022-09-21T17:02:59.242Z,65.00
2022-09-21T17:05:47.901Z,65.20
2022-09-21T17:08:37.337Z,66.30
2022-09-21T17:11:25.627Z,67.20
2022-09-21T17:14:16.302Z,68.40
2022-09-21T17:17:08.401Z,69.90
2022-09-21T17:19:56.773Z,70.30
2022-09-21T17:22:45.312Z,71.50
2022-09-21T17:25:34.697Z,72.90
2022-09-21T17:28:26.230Z,73.30
2022-09-21T17:31:17.493Z,73.70
2022-09-21T17:34:13.414Z,74.90
2022-09-21T17:37:01.705Z,76.30
2022-09-21T17:39:50.136Z,76.70
2022-09-21T17:42:41.681Z,78.00
2022-09-21T17:45:38.700Z,78.60
2022-09-21T17:48:33.894Z,80.20
2022-09-21T17:51:37.091Z,80.40
2022-09-21T17:54:25.796Z,81.50
2022-09-21T17:57:28.325Z,83.20
2022-09-21T18:00:21.583Z,83.30
2022-09-21T18:03:21.773Z,83.70
2022-09-21T18:06:12.882Z,85.20
2022-09-21T18:09:01.883Z,85.30
2022-09-21T18:12:20.387Z,86.40
2022-09-21T18:15:20.010Z,87.30
2022-09-21T18:18:16.589Z,88.00
2022-09-21T18:21:09.999Z,88.60
2022-09-21T18:24:13.628Z,90.00
2022-09-21T18:27:02.678Z,90.00
2022-09-21T18:29:51.652Z,90.20
2022-09-21T18:32:55.381Z,90.20
2022-09-21T18:35:57.382Z,90.30
2022-09-21T18:38:52.457Z,90.30
2022-09-21T18:41:50.442Z,90.40
2022-09-21T18:44:42.017Z,90.80
2022-09-21T18:47:36.206Z,91.20
2022-09-21T18:50:31.885Z,91.20
2022-09-21T18:53:28.015Z,91.60
2022-09-21T18:56:16.943Z,91.80
2022-09-21T18:59:07.227Z,92.20
2022-09-21T19:01:56.242Z,92.10
2022-09-21T19:04:45.813Z,92.30
2022-09-21T19:07:40.261Z,92.80
2022-09-21T19:10:35.338Z,92.70
2022-09-21T19:13:37.037Z,93.40
2022-09-21T19:16:34.995Z,93.50
2022-09-21T19:19:34.097Z,93.80
2022-09-21T19:22:29.889Z,94.20
2022-09-21T19:25:28.196Z,94.70
2022-09-21T19:28:36.891Z,94.90
2022-09-21T19:31:27.013Z,95.40
2022-09-21T19:34:16.901Z,95.90
2022-09-21T19:37:07.911Z,95.80
2022-09-21T19:39:56.754Z,95.50
2022-09-21T19:43:00.420Z,95.50
2022-09-21T19:46:04.423Z,95.60
2022-09-21T19:49:01.439Z,95.80
2022-09-21T19:51:51.612Z,96.00
2022-09-21T19:54:57.921Z,96.40
2022-09-21T19:58:09.681Z,96.30
2022-09-21T20:00:58.235Z,96.90
2022-09-21T20:03:48.617Z,97.60
2022-09-21T20:06:44.264Z,97.90
2022-09-21T20:09:42.148Z,98.20
2022-09-21T20:12:38.490Z,98.30
2022-09-21T20:15:33.775Z,98.30
2022-09-21T20:18:29.655Z,98.90
2022-09-21T20:21:19.242Z,99.00
2022-09-21T20:24:20.235Z,99.30
2022-09-21T20:27:21.931Z,99.50
2022-09-21T20:30:12.908Z,99.90
2022-09-21T20:33:03.451Z,99.90
2022-09-21T20:35:55.453Z,99.90
2022-09-21T20:38:44.185Z,99.90
2022-09-21T20:41:34.031Z,99.90
2022-09-21T20:44:22.459Z,99.90
2022-09-21T20:47:10.896Z,99.90
2022-09-21T20:49:59.234Z,99.90
2022-09-21T20:52:48.008Z,99.90
2022-09-21T20:55:36.443Z,99.90
2022-09-21T20:58:26.255Z,99.90
2022-09-21T21:01:14.596Z,99.90
2022-09-21T21:04:03.563Z,99.90
2022-09-21T21:06:52.223Z,99.90
2022-09-21T21:09:40.520Z,99.90
2022-09-21T21:12:28.878Z,99.90
2022-09-21T21:15:18.929Z,99.90
2022-09-21T21:18:11.171Z,99.90
2022-09-21T21:21:02.659Z,99.90
2022-09-21T21:24:09.844Z,99.90
2022-09-21T21:27:02.291Z,99.90
2022-09-21T21:29:52.982Z,99.90
2022-09-21T21:32:43.210Z,99.90
2022-09-21T21:35:32.157Z,99.90
2022-09-21T21:38:20.452Z,99.90
2022-09-21T21:41:09.073Z,99.90
2022-09-21T21:43:57.540Z,99.90
2022-09-21T21:46:45.831Z,99.90
2022-09-21T21:49:35.497Z,99.90
2022-09-21T21:52:23.858Z,99.90
2022-09-21T21:55:12.292Z,99.90
2022-09-21T21:58:00.599Z,99.90
2022-09-21T22:00:48.975Z,99.90
2022-09-21T22:03:37.603Z,99.90
2022-09-21T22:06:28.332Z,99.90
2022-09-21T22:09:18.902Z,99.90
2022-09-21T22:12:08.346Z,99.90
2022-09-21T22:14:56.658Z,99.90
2022-09-21T22:17:44.983Z,99.90
2022-09-21T22:20:33.288Z,99.90
2022-09-21T22:23:22.954Z,99.90
2022-09-21T22:26:13.148Z,99.90
2022-09-21T22:29:02.772Z,99.90
2022-09-21T22:31:51.676Z,99.90
2022-09-21T22:34:40.027Z,99.90
2022-09-21T22:37:28.385Z,99.90
2022-09-21T22:40:18.079Z,99.90
2022-09-21T22:43:06.419Z,99.90
2022-09-21T22:45:55.196Z,99.90
2022-09-21T22:48:44.160Z,99.90
2022-09-21T22:51:33.175Z,99.90
2022-09-21T22:54:21.465Z,99.90
2022-09-21T22:57:11.138Z,99.90
2022-09-21T22:59:59.431Z,99.90
2022-09-21T23:02:47.716Z,99.90
2022-09-21T23:05:36.041Z,99.90
2022-09-21T23:08:24.418Z,99.90
2022-09-21T23:11:15.074Z,99.90
2022-09-21T23:14:05.176Z,99.90
2022-09-21T23:16:53.998Z,99.90
2022-09-21T23:19:42.375Z,99.90
2022-09-21T23:22:30.663Z,99.90
2022-09-21T23:25:19.052Z,99.90
2022-09-21T23:28:07.382Z,99.90
2022-09-21T23:30:58.723Z,99.90
2022-09-21T23:33:49.132Z,99.90
2022-09-21T23:36:37.859Z,99.90
2022-09-21T23:39:26.219Z,99.90
2022-09-21T23:42:14.544Z,99.90
2022-09-21T23:45:02.864Z,99.90
2022-09-21T23:47:52.565Z,99.90
2022-09-21T23:50:41.011Z,99.90
2022-09-21T23:53:29.663Z,99.90
2022-09-21T23:56:20.833Z,99.90
2022-09-21T23:59:09.749Z,99.90
